sensor_id;sensor_type;location;lat;lon;timestamp;pressure;altitude;pressure_sealevel;temperature;humidity
6349;BME280;3207;42.648;23.406;2022-11-21T00:00:43;99502.44;;;5.84;96.69
6349;BME280;3207;42.648;23.406;2022-11-21T00:03:12;99505.97;;;5.83;96.86
6349;BME280;3207;42.648;23.406;2022-11-21T00:05:40;99500.78;;;5.83;97.06
6349;BME280;3207;42.648;23.406;2022-11-21T00:08:07;99504.22;;;5.84;96.25
6349;BME280;3207;42.648;23.406;2022-11-21T00:10:36;99501.53;;;5.85;96.24
6349;BME280;3207;42.648;23.406;2022-11-21T00:13:03;99487.94;;;5.82;97.02
6349;BME280;3207;42.648;23.406;2022-11-21T00:15:30;99503.97;;;5.88;96.76
6349;BME280;3207;42.648;23.406;2022-11-21T00:18:08;99508.38;;;5.86;96.33
6349;BME280;3207;42.648;23.406;2022-11-21T00:20:37;99498.84;;;5.87;96.12
6349;BME280;3207;42.648;23.406;2022-11-21T00:23:04;99458.31;;;5.72;95.92
6349;BME280;3207;42.648;23.406;2022-11-21T00:25:31;99477.13;;;5.90;96.24
6349;BME280;3207;42.648;23.406;2022-11-21T00:27:58;99477.88;;;5.92;96.85
6349;BME280;3207;42.648;23.406;2022-11-21T00:30:25;99470.78;;;5.94;97.13
6349;BME280;3207;42.648;23.406;2022-11-21T00:32:52;99467.19;;;5.96;96.85
6349;BME280;3207;42.648;23.406;2022-11-21T00:35:19;99470.53;;;5.98;96.80
6349;BME280;3207;42.648;23.406;2022-11-21T00:37:47;99464.31;;;6.01;96.96
6349;BME280;3207;42.648;23.406;2022-11-21T00:40:15;99443.66;;;5.85;96.69
6349;BME280;3207;42.648;23.406;2022-11-21T00:42:42;99472.84;;;6.03;96.73
6349;BME280;3207;42.648;23.406;2022-11-21T00:45:09;99403.50;;;5.64;96.25
6349;BME280;3207;42.648;23.406;2022-11-21T00:47:36;99442.81;;;5.84;95.41
6349;BME280;3207;42.648;23.406;2022-11-21T00:50:03;99483.41;;;6.00;96.01
6349;BME280;3207;42.648;23.406;2022-11-21T00:52:30;99481.72;;;5.99;95.76
6349;BME280;3207;42.648;23.406;2022-11-21T00:54:58;99479.22;;;5.97;96.27
6349;BME280;3207;42.648;23.406;2022-11-21T00:57:25;99473.38;;;5.94;95.96
6349;BME280;3207;42.648;23.406;2022-11-21T00:59:52;99471.94;;;5.90;95.70
6349;BME280;3207;42.648;23.406;2022-11-21T01:02:19;99446.06;;;5.74;95.34
6349;BME280;3207;42.648;23.406;2022-11-21T01:04:45;99393.53;;;5.43;95.41
6349;BME280;3207;42.648;23.406;2022-11-21T01:07:12;99453.28;;;5.83;95.69
6349;BME280;3207;42.648;23.406;2022-11-21T01:09:39;99453.19;;;5.84;95.56
6349;BME280;3207;42.648;23.406;2022-11-21T01:12:08;99431.56;;;5.71;96.10
6349;BME280;3207;42.648;23.406;2022-11-21T01:14:35;99450.81;;;5.81;96.00
6349;BME280;3207;42.648;23.406;2022-11-21T01:17:01;99446.53;;;5.80;96.09
6349;BME280;3207;42.648;23.406;2022-11-21T01:19:28;99449.13;;;5.80;95.74
6349;BME280;3207;42.648;23.406;2022-11-21T01:21:55;99448.31;;;5.80;95.96
6349;BME280;3207;42.648;23.406;2022-11-21T01:24:22;99437.94;;;5.80;96.19
6349;BME280;3207;42.648;23.406;2022-11-21T01:26:48;99425.22;;;5.75;95.97
6349;BME280;3207;42.648;23.406;2022-11-21T01:29:19;99401.81;;;5.63;95.79
6349;BME280;3207;42.648;23.406;2022-11-21T01:31:46;99351.44;;;5.11;95.83
6349;BME280;3207;42.648;23.406;2022-11-21T01:34:14;99418.53;;;5.44;95.54
6349;BME280;3207;42.648;23.406;2022-11-21T01:36:41;99435.16;;;5.40;95.33
6349;BME280;3207;42.648;23.406;2022-11-21T01:39:09;99447.22;;;5.27;95.75
6349;BME280;3207;42.648;23.406;2022-11-21T01:41:39;99445.72;;;5.23;95.86
6349;BME280;3207;42.648;23.406;2022-11-21T01:44:12;99452.75;;;5.21;95.93
6349;BME280;3207;42.648;23.406;2022-11-21T01:46:41;99451.91;;;5.21;96.13
6349;BME280;3207;42.648;23.406;2022-11-21T01:49:10;99452.84;;;5.20;96.60
6349;BME280;3207;42.648;23.406;2022-11-21T01:51:41;99444.16;;;5.21;97.01
6349;BME280;3207;42.648;23.406;2022-11-21T01:54:12;99441.38;;;5.24;96.57
6349;BME280;3207;42.648;23.406;2022-11-21T01:56:45;99450.72;;;5.26;97.57
6349;BME280;3207;42.648;23.406;2022-11-21T01:59:16;99451.56;;;5.27;96.75
6349;BME280;3207;42.648;23.406;2022-11-21T02:01:49;99457.31;;;5.18;96.92
6349;BME280;3207;42.648;23.406;2022-11-21T02:04:18;99456.81;;;5.11;96.30
6349;BME280;3207;42.648;23.406;2022-11-21T02:06:45;99455.59;;;5.02;96.85
6349;BME280;3207;42.648;23.406;2022-11-21T02:09:12;99455.69;;;5.01;97.14
6349;BME280;3207;42.648;23.406;2022-11-21T02:11:42;99456.53;;;5.01;97.06
6349;BME280;3207;42.648;23.406;2022-11-21T02:14:12;99456.91;;;4.95;97.26
6349;BME280;3207;42.648;23.406;2022-11-21T02:16:38;99453.81;;;4.89;97.56
6349;BME280;3207;42.648;23.406;2022-11-21T02:19:09;99443.56;;;4.87;97.88
6349;BME280;3207;42.648;23.406;2022-11-21T02:21:43;99447.81;;;4.88;98.32
6349;BME280;3207;42.648;23.406;2022-11-21T02:24:19;99437.56;;;4.87;98.56
6349;BME280;3207;42.648;23.406;2022-11-21T02:26:50;99450.88;;;4.95;98.93
6349;BME280;3207;42.648;23.406;2022-11-21T02:29:17;99451.50;;;4.98;99.37
6349;BME280;3207;42.648;23.406;2022-11-21T02:31:44;99454.69;;;5.03;99.47
6349;BME280;3207;42.648;23.406;2022-11-21T02:34:11;99452.75;;;5.07;99.68
6349;BME280;3207;42.648;23.406;2022-11-21T02:36:41;99460.16;;;5.13;100.00
6349;BME280;3207;42.648;23.406;2022-11-21T02:39:11;99454.72;;;5.18;99.83
6349;BME280;3207;42.648;23.406;2022-11-21T02:41:44;99453.41;;;5.25;99.71
6349;BME280;3207;42.648;23.406;2022-11-21T02:44:19;99456.66;;;5.28;99.91
6349;BME280;3207;42.648;23.406;2022-11-21T02:46:49;99453.03;;;5.31;99.50
6349;BME280;3207;42.648;23.406;2022-11-21T02:49:23;99451.19;;;5.33;99.24
6349;BME280;3207;42.648;23.406;2022-11-21T02:51:51;99449.44;;;5.33;98.15
6349;BME280;3207;42.648;23.406;2022-11-21T02:54:18;99452.19;;;5.30;98.05
6349;BME280;3207;42.648;23.406;2022-11-21T02:56:45;99449.72;;;5.29;98.78
6349;BME280;3207;42.648;23.406;2022-11-21T02:59:11;99437.13;;;5.08;98.78
6349;BME280;3207;42.648;23.406;2022-11-21T03:01:39;99445.06;;;5.20;98.56
6349;BME280;3207;42.648;23.406;2022-11-21T03:04:06;99444.97;;;5.21;98.48
6349;BME280;3207;42.648;23.406;2022-11-21T03:06:33;99447.41;;;5.24;99.13
6349;BME280;3207;42.648;23.406;2022-11-21T03:09:00;99438.53;;;5.28;98.83
6349;BME280;3207;42.648;23.406;2022-11-21T03:11:26;99439.16;;;5.32;98.96
6349;BME280;3207;42.648;23.406;2022-11-21T03:13:53;99424.34;;;5.34;99.22
6349;BME280;3207;42.648;23.406;2022-11-21T03:16:20;99426.09;;;5.33;99.20
6349;BME280;3207;42.648;23.406;2022-11-21T03:18:48;99422.59;;;5.34;99.01
6349;BME280;3207;42.648;23.406;2022-11-21T03:21:15;99387.28;;;5.19;98.74
6349;BME280;3207;42.648;23.406;2022-11-21T03:23:42;99405.47;;;5.32;98.80
6349;BME280;3207;42.648;23.406;2022-11-21T03:26:08;99419.75;;;5.39;99.20
6349;BME280;3207;42.648;23.406;2022-11-21T03:28:35;99418.69;;;5.41;99.18
6349;BME280;3207;42.648;23.406;2022-11-21T03:31:02;99360.06;;;5.12;98.63
6349;BME280;3207;42.648;23.406;2022-11-21T03:33:29;99413.16;;;5.47;99.06
6349;BME280;3207;42.648;23.406;2022-11-21T03:35:57;99411.31;;;5.49;98.42
6349;BME280;3207;42.648;23.406;2022-11-21T03:38:24;99407.69;;;5.52;98.16
6349;BME280;3207;42.648;23.406;2022-11-21T03:40:50;99391.13;;;5.40;98.66
6349;BME280;3207;42.648;23.406;2022-11-21T03:43:17;99401.97;;;5.47;97.53
6349;BME280;3207;42.648;23.406;2022-11-21T03:45:45;99388.25;;;5.45;97.66
6349;BME280;3207;42.648;23.406;2022-11-21T03:48:11;99357.19;;;5.17;97.71
6349;BME280;3207;42.648;23.406;2022-11-21T03:50:41;99400.59;;;5.27;98.08
6349;BME280;3207;42.648;23.406;2022-11-21T03:53:09;99405.09;;;5.24;97.85
6349;BME280;3207;42.648;23.406;2022-11-21T03:55:36;99400.31;;;5.18;97.52
6349;BME280;3207;42.648;23.406;2022-11-21T03:58:03;99392.25;;;5.08;97.16
6349;BME280;3207;42.648;23.406;2022-11-21T04:00:30;99393.63;;;4.99;97.84
6349;BME280;3207;42.648;23.406;2022-11-21T04:02:58;99394.09;;;4.92;98.20
6349;BME280;3207;42.648;23.406;2022-11-21T04:05:25;99396.22;;;4.85;98.59
6349;BME280;3207;42.648;23.406;2022-11-21T04:07:52;99314.50;;;4.37;99.20
6349;BME280;3207;42.648;23.406;2022-11-21T04:10:20;99396.41;;;4.82;99.42
6349;BME280;3207;42.648;23.406;2022-11-21T04:12:48;99399.91;;;4.81;100.00
6349;BME280;3207;42.648;23.406;2022-11-21T04:15:15;99404.16;;;4.82;100.00
6349;BME280;3207;42.648;23.406;2022-11-21T04:17:42;99404.16;;;4.82;100.00
6349;BME280;3207;42.648;23.406;2022-11-21T04:20:10;99398.06;;;4.83;100.00
6349;BME280;3207;42.648;23.406;2022-11-21T04:22:36;99402.66;;;4.78;100.00
6349;BME280;3207;42.648;23.406;2022-11-21T04:25:04;99403.91;;;4.87;100.00
6349;BME280;3207;42.648;23.406;2022-11-21T04:27:32;99405.28;;;4.92;100.00
6349;BME280;3207;42.648;23.406;2022-11-21T04:29:59;99412.78;;;4.97;100.00
6349;BME280;3207;42.648;23.406;2022-11-21T04:32:25;99401.41;;;4.99;100.00
6349;BME280;3207;42.648;23.406;2022-11-21T04:34:52;99404.56;;;5.04;100.00
6349;BME280;3207;42.648;23.406;2022-11-21T04:37:19;99337.75;;;4.67;100.00
6349;BME280;3207;42.648;23.406;2022-11-21T04:39:46;99403.25;;;5.11;100.00
6349;BME280;3207;42.648;23.406;2022-11-21T04:42:13;99408.53;;;5.10;100.00
6349;BME280;3207;42.648;23.406;2022-11-21T04:44:41;99412.88;;;5.09;100.00
6349;BME280;3207;42.648;23.406;2022-11-21T04:47:07;99417.03;;;5.12;100.00
6349;BME280;3207;42.648;23.406;2022-11-21T04:49:34;99385.69;;;5.02;100.00
6349;BME280;3207;42.648;23.406;2022-11-21T04:52:01;99390.84;;;5.02;100.00
6349;BME280;3207;42.648;23.406;2022-11-21T04:54:28;99393.28;;;5.05;100.00
6349;BME280;3207;42.648;23.406;2022-11-21T04:56:55;99404.75;;;5.15;100.00
6349;BME280;3207;42.648;23.406;2022-11-21T04:59:21;99401.25;;;5.17;99.64
6349;BME280;3207;42.648;23.406;2022-11-21T05:01:49;99410.69;;;5.18;99.78
6349;BME280;3207;42.648;23.406;2022-11-21T05:04:16;99385.41;;;5.07;99.66
6349;BME280;3207;42.648;23.406;2022-11-21T05:06:43;99418.25;;;5.21;99.84
6349;BME280;3207;42.648;23.406;2022-11-21T05:09:10;99414.63;;;5.23;100.00
6349;BME280;3207;42.648;23.406;2022-11-21T05:11:37;99350.53;;;4.84;99.51
6349;BME280;3207;42.648;23.406;2022-11-21T05:14:21;99399.94;;;5.24;99.29
6349;BME280;3207;42.648;23.406;2022-11-21T05:16:51;99393.25;;;5.20;99.21
6349;BME280;3207;42.648;23.406;2022-11-21T05:19:18;99359.78;;;4.88;99.53
6349;BME280;3207;42.648;23.406;2022-11-21T05:21:45;99390.03;;;5.02;98.78
6349;BME280;3207;42.648;23.406;2022-11-21T05:24:12;99393.09;;;4.94;99.35
6349;BME280;3207;42.648;23.406;2022-11-21T05:26:39;99390.84;;;5.02;98.96
6349;BME280;3207;42.648;23.406;2022-11-21T05:29:05;99378.47;;;5.07;99.32
6349;BME280;3207;42.648;23.406;2022-11-21T05:31:32;99385.13;;;5.11;98.93
6349;BME280;3207;42.648;23.406;2022-11-21T05:34:00;99353.50;;;4.92;99.41
6349;BME280;3207;42.648;23.406;2022-11-21T05:36:27;99407.34;;;5.15;99.29
6349;BME280;3207;42.648;23.406;2022-11-21T05:38:54;99414.28;;;5.15;99.45
6349;BME280;3207;42.648;23.406;2022-11-21T05:41:21;99413.34;;;5.16;99.29
6349;BME280;3207;42.648;23.406;2022-11-21T05:43:48;99421.03;;;5.18;98.58
6349;BME280;3207;42.648;23.406;2022-11-21T05:46:16;99408.44;;;5.11;98.45
6349;BME280;3207;42.648;23.406;2022-11-21T05:48:43;99412.69;;;5.12;99.14
6349;BME280;3207;42.648;23.406;2022-11-21T05:51:12;99417.88;;;5.12;98.91
6349;BME280;3207;42.648;23.406;2022-11-21T05:53:39;99374.38;;;4.89;98.61
6349;BME280;3207;42.648;23.406;2022-11-21T05:56:07;99372.91;;;4.85;98.73
6349;BME280;3207;42.648;23.406;2022-11-21T05:58:35;99390.66;;;4.91;98.25
6349;BME280;3207;42.648;23.406;2022-11-21T06:01:03;99410.66;;;5.03;98.59
6349;BME280;3207;42.648;23.406;2022-11-21T06:03:33;99405.56;;;5.02;98.71
6349;BME280;3207;42.648;23.406;2022-11-21T06:06:01;99401.59;;;4.96;98.31
6349;BME280;3207;42.648;23.406;2022-11-21T06:08:30;99409.91;;;5.01;98.33
6349;BME280;3207;42.648;23.406;2022-11-21T06:10:58;99411.66;;;5.01;98.22
6349;BME280;3207;42.648;23.406;2022-11-21T06:13:25;99408.25;;;5.00;98.67
6349;BME280;3207;42.648;23.406;2022-11-21T06:15:57;99402.31;;;4.98;98.75
6349;BME280;3207;42.648;23.406;2022-11-21T06:18:24;99411.13;;;4.96;98.02
6349;BME280;3207;42.648;23.406;2022-11-21T06:20:51;99414.72;;;4.93;97.89
6349;BME280;3207;42.648;23.406;2022-11-21T06:23:19;99436.34;;;4.92;98.07
6349;BME280;3207;42.648;23.406;2022-11-21T06:25:47;99429.69;;;4.88;98.23
6349;BME280;3207;42.648;23.406;2022-11-21T06:28:21;99430.50;;;4.89;97.88
6349;BME280;3207;42.648;23.406;2022-11-21T06:30:48;99427.19;;;4.87;98.12
6349;BME280;3207;42.648;23.406;2022-11-21T06:33:16;99435.69;;;4.89;98.16
6349;BME280;3207;42.648;23.406;2022-11-21T06:35:43;99439.19;;;4.88;98.29
6349;BME280;3207;42.648;23.406;2022-11-21T06:38:10;99443.47;;;4.89;98.10
6349;BME280;3207;42.648;23.406;2022-11-21T06:40:37;99443.38;;;4.90;98.33
6349;BME280;3207;42.648;23.406;2022-11-21T06:43:06;99437.34;;;4.90;98.30
6349;BME280;3207;42.648;23.406;2022-11-21T06:45:32;99436.44;;;4.91;98.15
6349;BME280;3207;42.648;23.406;2022-11-21T06:48:00;99445.78;;;4.93;98.44
6349;BME280;3207;42.648;23.406;2022-11-21T06:50:27;99432.84;;;4.93;97.99
6349;BME280;3207;42.648;23.406;2022-11-21T06:52:56;99424.16;;;4.94;97.64
6349;BME280;3207;42.648;23.406;2022-11-21T06:55:23;99385.00;;;4.70;98.10
6349;BME280;3207;42.648;23.406;2022-11-21T06:57:50;99429.34;;;4.94;98.13
6349;BME280;3207;42.648;23.406;2022-11-21T07:00:19;99436.19;;;4.95;97.92
6349;BME280;3207;42.648;23.406;2022-11-21T07:02:46;99432.94;;;4.92;97.82
6349;BME280;3207;42.648;23.406;2022-11-21T07:05:13;99439.53;;;4.97;97.42
6349;BME280;3207;42.648;23.406;2022-11-21T07:07:39;99442.00;;;4.99;97.69
6349;BME280;3207;42.648;23.406;2022-11-21T07:10:07;99447.91;;;5.01;97.70
6349;BME280;3207;42.648;23.406;2022-11-21T07:12:34;99452.19;;;5.02;97.41
6349;BME280;3207;42.648;23.406;2022-11-21T07:15:20;99451.50;;;4.98;97.02
6349;BME280;3207;42.648;23.406;2022-11-21T07:17:47;99456.91;;;4.95;97.39
6349;BME280;3207;42.648;23.406;2022-11-21T07:20:14;99444.88;;;4.94;96.67
6349;BME280;3207;42.648;23.406;2022-11-21T07:22:40;99460.31;;;4.96;97.22
6349;BME280;3207;42.648;23.406;2022-11-21T07:25:08;99457.66;;;4.97;96.98
6349;BME280;3207;42.648;23.406;2022-11-21T07:27:34;99460.13;;;4.99;97.05
6349;BME280;3207;42.648;23.406;2022-11-21T07:30:02;99438.19;;;4.90;96.16
6349;BME280;3207;42.648;23.406;2022-11-21T07:32:30;99437.19;;;4.93;96.33
6349;BME280;3207;42.648;23.406;2022-11-21T07:34:56;99449.88;;;4.97;96.08
6349;BME280;3207;42.648;23.406;2022-11-21T07:37:23;99446.34;;;4.98;96.69
6349;BME280;3207;42.648;23.406;2022-11-21T07:39:50;99447.00;;;5.02;96.72
6349;BME280;3207;42.648;23.406;2022-11-21T07:42:17;99448.59;;;5.04;96.89
6349;BME280;3207;42.648;23.406;2022-11-21T07:44:44;99451.84;;;5.08;96.65
6349;BME280;3207;42.648;23.406;2022-11-21T07:47:11;99412.38;;;4.89;96.57
6349;BME280;3207;42.648;23.406;2022-11-21T07:49:39;99450.81;;;5.10;96.01
6349;BME280;3207;42.648;23.406;2022-11-21T07:52:05;99448.13;;;5.12;95.66
6349;BME280;3207;42.648;23.406;2022-11-21T07:54:32;99445.28;;;5.17;95.27
6349;BME280;3207;42.648;23.406;2022-11-21T07:56:59;99410.00;;;5.00;95.28
6349;BME280;3207;42.648;23.406;2022-11-21T07:59:26;99449.16;;;5.24;95.25
6349;BME280;3207;42.648;23.406;2022-11-21T08:01:53;99439.72;;;5.23;95.14
6349;BME280;3207;42.648;23.406;2022-11-21T08:04:20;99445.72;;;5.23;94.19
6349;BME280;3207;42.648;23.406;2022-11-21T08:06:48;99464.16;;;5.33;94.46
6349;BME280;3207;42.648;23.406;2022-11-21T08:09:15;99465.72;;;5.35;94.56
6349;BME280;3207;42.648;23.406;2022-11-21T08:11:42;99363.94;;;4.76;94.11
6349;BME280;3207;42.648;23.406;2022-11-21T08:14:09;99465.72;;;5.35;94.48
6349;BME280;3207;42.648;23.406;2022-11-21T08:16:36;99485.91;;;5.44;93.92
6349;BME280;3207;42.648;23.406;2022-11-21T08:19:03;99474.88;;;5.41;93.54
6349;BME280;3207;42.648;23.406;2022-11-21T08:21:30;99476.94;;;5.36;93.31
6349;BME280;3207;42.648;23.406;2022-11-21T08:23:59;99448.03;;;5.13;93.84
6349;BME280;3207;42.648;23.406;2022-11-21T08:26:25;99477.66;;;5.38;93.95
6349;BME280;3207;42.648;23.406;2022-11-21T08:28:52;99487.47;;;5.47;93.32
6349;BME280;3207;42.648;23.406;2022-11-21T08:31:19;99476.00;;;5.51;93.54
6349;BME280;3207;42.648;23.406;2022-11-21T08:33:46;99473.56;;;5.62;93.24
6349;BME280;3207;42.648;23.406;2022-11-21T08:36:13;99468.22;;;5.79;93.62
6349;BME280;3207;42.648;23.406;2022-11-21T08:38:39;99467.28;;;5.95;92.48
6349;BME280;3207;42.648;23.406;2022-11-21T08:41:10;99475.97;;;6.08;92.88
6349;BME280;3207;42.648;23.406;2022-11-21T08:43:54;99474.91;;;6.24;92.15
6349;BME280;3207;42.648;23.406;2022-11-21T08:46:21;99434.50;;;6.20;91.11
6349;BME280;3207;42.648;23.406;2022-11-21T08:48:51;99467.41;;;6.47;90.70
6349;BME280;3207;42.648;23.406;2022-11-21T08:51:18;99465.56;;;6.61;90.62
6349;BME280;3207;42.648;23.406;2022-11-21T08:53:45;99459.78;;;6.71;89.15
6349;BME280;3207;42.648;23.406;2022-11-21T08:56:13;99459.41;;;6.77;88.50
6349;BME280;3207;42.648;23.406;2022-11-21T08:58:40;99471.25;;;6.93;88.35
6349;BME280;3207;42.648;23.406;2022-11-21T09:01:07;99458.28;;;7.06;88.38
6349;BME280;3207;42.648;23.406;2022-11-21T09:03:34;99463.88;;;7.13;87.15
6349;BME280;3207;42.648;23.406;2022-11-21T09:06:00;99467.13;;;7.16;86.84
6349;BME280;3207;42.648;23.406;2022-11-21T09:08:28;99455.06;;;7.15;87.17
6349;BME280;3207;42.648;23.406;2022-11-21T09:10:55;99453.59;;;7.11;86.41
6349;BME280;3207;42.648;23.406;2022-11-21T09:13:23;99446.72;;;7.10;86.36
6349;BME280;3207;42.648;23.406;2022-11-21T09:15:50;99450.28;;;7.09;87.01
6349;BME280;3207;42.648;23.406;2022-11-21T09:18:34;99459.94;;;7.07;86.58
6349;BME280;3207;42.648;23.406;2022-11-21T09:21:01;99397.47;;;6.71;86.87
6349;BME280;3207;42.648;23.406;2022-11-21T09:23:28;99419.50;;;6.90;86.42
6349;BME280;3207;42.648;23.406;2022-11-21T09:25:54;99426.38;;;7.04;87.06
6349;BME280;3207;42.648;23.406;2022-11-21T09:28:23;99425.00;;;7.11;87.50
6349;BME280;3207;42.648;23.406;2022-11-21T09:30:49;99429.28;;;7.25;86.87
6349;BME280;3207;42.648;23.406;2022-11-21T09:33:16;99438.84;;;7.37;86.89
6349;BME280;3207;42.648;23.406;2022-11-21T09:35:43;99387.06;;;7.21;86.35
6349;BME280;3207;42.648;23.406;2022-11-21T09:38:10;99435.66;;;7.70;86.47
6349;BME280;3207;42.648;23.406;2022-11-21T09:40:40;99398.66;;;7.54;85.61
6349;BME280;3207;42.648;23.406;2022-11-21T09:43:29;99446.34;;;7.91;85.64
6349;BME280;3207;42.648;23.406;2022-11-21T09:46:02;99443.91;;;8.00;85.07
6349;BME280;3207;42.648;23.406;2022-11-21T09:48:38;99445.13;;;8.07;84.23
6349;BME280;3207;42.648;23.406;2022-11-21T09:51:11;99443.63;;;8.16;84.22
6349;BME280;3207;42.648;23.406;2022-11-21T09:53:52;99440.63;;;8.46;83.99
6349;BME280;3207;42.648;23.406;2022-11-21T09:56:22;99436.97;;;8.84;83.46
6349;BME280;3207;42.648;23.406;2022-11-21T09:59:04;99433.38;;;9.20;82.15
6349;BME280;3207;42.648;23.406;2022-11-21T10:01:32;99437.28;;;9.25;80.40
6349;BME280;3207;42.648;23.406;2022-11-21T10:04:00;99414.19;;;9.32;79.83
6349;BME280;3207;42.648;23.406;2022-11-21T10:06:29;99430.28;;;9.59;79.71
6349;BME280;3207;42.648;23.406;2022-11-21T10:09:02;99442.38;;;9.71;78.87
6349;BME280;3207;42.648;23.406;2022-11-21T10:11:40;99437.03;;;9.84;78.09
6349;BME280;3207;42.648;23.406;2022-11-21T10:14:30;99433.59;;;9.83;76.20
6349;BME280;3207;42.648;23.406;2022-11-21T10:17:12;99432.88;;;9.81;76.10
6349;BME280;3207;42.648;23.406;2022-11-21T10:19:53;99425.16;;;9.80;75.72
6349;BME280;3207;42.648;23.406;2022-11-21T10:22:35;99422.53;;;9.91;75.73
6349;BME280;3207;42.648;23.406;2022-11-21T10:25:12;99409.94;;;9.96;75.42
6349;BME280;3207;42.648;23.406;2022-11-21T10:27:45;99401.63;;;10.02;75.14
6349;BME280;3207;42.648;23.406;2022-11-21T10:30:18;99386.59;;;9.95;74.49
6349;BME280;3207;42.648;23.406;2022-11-21T10:32:47;99380.28;;;9.97;75.09
6349;BME280;3207;42.648;23.406;2022-11-21T10:35:18;99381.47;;;10.04;74.49
6349;BME280;3207;42.648;23.406;2022-11-21T10:37:49;99386.69;;;10.04;74.29
6349;BME280;3207;42.648;23.406;2022-11-21T10:40:31;99379.31;;;9.98;73.89
6349;BME280;3207;42.648;23.406;2022-11-21T10:43:03;99374.59;;;9.92;74.49
6349;BME280;3207;42.648;23.406;2022-11-21T10:45:48;99373.28;;;9.86;74.51
6349;BME280;3207;42.648;23.406;2022-11-21T10:48:15;99365.88;;;9.71;74.17
6349;BME280;3207;42.648;23.406;2022-11-21T10:50:58;99370.78;;;9.53;74.53
6349;BME280;3207;42.648;23.406;2022-11-21T10:53:30;99366.75;;;9.38;75.50
6349;BME280;3207;42.648;23.406;2022-11-21T10:56:16;99353.81;;;9.25;75.51
6349;BME280;3207;42.648;23.406;2022-11-21T10:58:46;99351.00;;;9.06;76.07
6349;BME280;3207;42.648;23.406;2022-11-21T11:01:23;99343.97;;;8.73;77.45
6349;BME280;3207;42.648;23.406;2022-11-21T11:04:14;99327.84;;;8.57;78.61
6349;BME280;3207;42.648;23.406;2022-11-21T11:06:42;99341.59;;;8.70;79.05
6349;BME280;3207;42.648;23.406;2022-11-21T11:09:26;99347.53;;;8.83;79.15
6349;BME280;3207;42.648;23.406;2022-11-21T11:12:18;99317.06;;;8.61;78.76
6349;BME280;3207;42.648;23.406;2022-11-21T11:14:49;99340.06;;;8.67;78.79
6349;BME280;3207;42.648;23.406;2022-11-21T11:17:27;99336.97;;;8.62;79.83
6349;BME280;3207;42.648;23.406;2022-11-21T11:19:59;99278.72;;;8.28;80.18
6349;BME280;3207;42.648;23.406;2022-11-21T11:22:27;99336.63;;;8.67;80.88
6349;BME280;3207;42.648;23.406;2022-11-21T11:24:54;99332.00;;;8.70;80.79
6349;BME280;3207;42.648;23.406;2022-11-21T11:27:26;99333.22;;;8.77;80.86
6349;BME280;3207;42.648;23.406;2022-11-21T11:29:53;99342.22;;;8.85;81.02
6349;BME280;3207;42.648;23.406;2022-11-21T11:32:20;99334.63;;;8.81;80.39
6349;BME280;3207;42.648;23.406;2022-11-21T11:34:56;99337.47;;;8.67;80.64
6349;BME280;3207;42.648;23.406;2022-11-21T11:37:31;99308.19;;;8.53;80.92
6349;BME280;3207;42.648;23.406;2022-11-21T11:40:07;99335.28;;;8.61;81.02
6349;BME280;3207;42.648;23.406;2022-11-21T11:43:01;99333.38;;;8.52;81.87
6349;BME280;3207;42.648;23.406;2022-11-21T11:46:01;99336.78;;;8.41;82.08
6349;BME280;3207;42.648;23.406;2022-11-21T11:48:49;99334.81;;;8.45;82.90
6349;BME280;3207;42.648;23.406;2022-11-21T11:51:24;99329.47;;;8.47;82.97
6349;BME280;3207;42.648;23.406;2022-11-21T11:53:57;99328.69;;;8.57;83.35
6349;BME280;3207;42.648;23.406;2022-11-21T11:56:31;99326.31;;;8.65;83.21
6349;BME280;3207;42.648;23.406;2022-11-21T11:59:02;99318.97;;;8.70;83.13
6349;BME280;3207;42.648;23.406;2022-11-21T12:01:35;99317.31;;;8.69;83.05
6349;BME280;3207;42.648;23.406;2022-11-21T12:04:10;99322.91;;;8.76;83.07
6349;BME280;3207;42.648;23.406;2022-11-21T12:06:44;99245.41;;;8.33;83.09
6349;BME280;3207;42.648;23.406;2022-11-21T12:09:20;99318.75;;;8.85;83.09
6349;BME280;3207;42.648;23.406;2022-11-21T12:11:53;99309.03;;;8.64;83.00
6349;BME280;3207;42.648;23.406;2022-11-21T12:14:43;99308.09;;;8.65;83.04
6349;BME280;3207;42.648;23.406;2022-11-21T12:17:35;99323.13;;;8.73;82.95
6349;BME280;3207;42.648;23.406;2022-11-21T12:20:12;99322.06;;;8.75;83.19
6349;BME280;3207;42.648;23.406;2022-11-21T12:22:43;99325.38;;;8.77;83.64
6349;BME280;3207;42.648;23.406;2022-11-21T12:25:11;99314.13;;;8.77;83.48
6349;BME280;3207;42.648;23.406;2022-11-21T12:27:40;99316.63;;;8.78;83.56
6349;BME280;3207;42.648;23.406;2022-11-21T12:33:11;99308.81;;;8.78;83.90
6349;BME280;3207;42.648;23.406;2022-11-21T12:36:01;99309.75;;;8.77;83.96
6349;BME280;3207;42.648;23.406;2022-11-21T12:38:47;99316.84;;;8.75;84.09
6349;BME280;3207;42.648;23.406;2022-11-21T12:41:26;99301.44;;;8.72;84.22
6349;BME280;3207;42.648;23.406;2022-11-21T12:44:22;99304.66;;;8.76;84.46
6349;BME280;3207;42.648;23.406;2022-11-21T12:47:00;99297.06;;;8.73;84.53
6349;BME280;3207;42.648;23.406;2022-11-21T12:49:34;99296.94;;;8.74;84.93
6349;BME280;3207;42.648;23.406;2022-11-21T12:52:28;99297.78;;;8.75;85.38
6349;BME280;3207;42.648;23.406;2022-11-21T12:55:27;99293.28;;;8.77;85.23
6349;BME280;3207;42.648;23.406;2022-11-21T12:58:06;99293.19;;;8.78;85.32
6349;BME280;3207;42.648;23.406;2022-11-21T13:00:44;99285.00;;;8.83;85.29
6349;BME280;3207;42.648;23.406;2022-11-21T13:03:34;99287.97;;;8.90;85.55
6349;BME280;3207;42.648;23.406;2022-11-21T13:06:05;99271.84;;;8.96;85.54
6349;BME280;3207;42.648;23.406;2022-11-21T13:08:39;99273.75;;;8.94;84.66
6349;BME280;3207;42.648;23.406;2022-11-21T13:11:11;99266.41;;;8.88;84.79
6349;BME280;3207;42.648;23.406;2022-11-21T13:14:06;99268.53;;;8.82;84.29
6349;BME280;3207;42.648;23.406;2022-11-21T13:16:36;99271.97;;;8.83;84.57
6349;BME280;3207;42.648;23.406;2022-11-21T13:19:18;99264.97;;;8.84;84.53
6349;BME280;3207;42.648;23.406;2022-11-21T13:21:48;99262.25;;;8.85;85.11
6349;BME280;3207;42.648;23.406;2022-11-21T13:24:55;99239.63;;;8.74;84.93
6349;BME280;3207;42.648;23.406;2022-11-21T13:27:29;99260.69;;;8.94;85.07
6349;BME280;3207;42.648;23.406;2022-11-21T13:32:45;99249.72;;;8.79;84.43
6349;BME280;3207;42.648;23.406;2022-11-21T13:38:31;99244.50;;;8.68;84.54
6349;BME280;3207;42.648;23.406;2022-11-21T13:40:58;99264.97;;;8.72;84.55
6349;BME280;3207;42.648;23.406;2022-11-21T13:43:44;99265.81;;;8.73;84.99
6349;BME280;3207;42.648;23.406;2022-11-21T13:49:21;99260.00;;;8.69;85.52